createdAt,value
2022-07-25T00:00:00.000Z,0
2022-07-25T00:00:34.972Z,0
2022-07-25T00:01:07.054Z,0
2022-07-25T00:01:39.918Z,0
2022-07-25T00:02:09.585Z,0
2022-07-25T00:02:42.716Z,0
2022-07-25T00:03:14.886Z,0
2022-07-25T00:03:37.572Z,0
2022-07-25T00:04:00.215Z,0
2022-07-25T00:04:35.654Z,0
2022-07-25T00:05:06.703Z,0
2022-07-25T00:05:38.809Z,0
2022-07-25T00:06:13.416Z,0
2022-07-25T00:06:43.372Z,0
2022-07-25T00:07:15.603Z,0
2022-07-25T00:07:37.884Z,0
2022-07-25T00:08:01.075Z,0
2022-07-25T00:08:34.853Z,0
2022-07-25T00:09:08.421Z,0
2022-07-25T00:09:39.205Z,0
2022-07-25T00:10:09.083Z,0
2022-07-25T00:10:42.810Z,0
2022-07-25T00:11:15.487Z,0
2022-07-25T00:11:38.175Z,0
2022-07-25T00:12:00.727Z,0
2022-07-25T00:12:34.989Z,0
2022-07-25T00:13:08.500Z,0
2022-07-25T00:13:40.385Z,0
2022-07-25T00:14:10.720Z,0
2022-07-25T00:14:42.616Z,0
2022-07-25T00:15:14.917Z,0
2022-07-25T00:15:37.584Z,0
2022-07-25T00:16:01.589Z,0
2022-07-25T00:16:36.816Z,0
2022-07-25T00:17:06.791Z,0
2022-07-25T00:17:42.599Z,0
2022-07-25T00:18:05.027Z,0
2022-07-25T00:18:42.927Z,0
2022-07-25T00:19:14.624Z,0
2022-07-25T00:19:37.971Z,0
2022-07-25T00:20:00.302Z,0
2022-07-25T00:20:34.841Z,0
2022-07-25T00:21:06.657Z,0
2022-07-25T00:21:38.630Z,0
2022-07-25T00:22:08.932Z,0
2022-07-25T00:22:42.618Z,0
2022-07-25T00:23:14.727Z,0
2022-07-25T00:23:37.989Z,0
2022-07-25T00:24:00.140Z,0
2022-07-25T00:24:34.532Z,0
2022-07-25T00:25:06.643Z,0
2022-07-25T00:25:38.603Z,0
2022-07-25T00:26:08.959Z,0
2022-07-25T00:26:46.105Z,0
2022-07-25T00:27:14.616Z,0
2022-07-25T00:27:37.824Z,0
2022-07-25T00:28:00.393Z,0
2022-07-25T00:28:34.893Z,0
2022-07-25T00:29:06.551Z,0
2022-07-25T00:29:40.041Z,0
2022-07-25T00:30:09.573Z,0
2022-07-25T00:30:42.641Z,0
2022-07-25T00:31:14.612Z,0
2022-07-25T00:31:38.496Z,0
2022-07-25T00:32:00.718Z,0
2022-07-25T00:32:36.130Z,0
2022-07-25T00:33:06.972Z,0
2022-07-25T00:33:38.584Z,0
2022-07-25T00:34:09.631Z,0
2022-07-25T00:34:42.602Z,0
2022-07-25T00:35:14.542Z,0
2022-07-25T00:35:38.455Z,0
2022-07-25T00:36:00.877Z,0
2022-07-25T00:36:34.491Z,0
2022-07-25T00:37:13.112Z,0
2022-07-25T00:37:38.486Z,0
2022-07-25T00:38:09.178Z,0
2022-07-25T00:38:42.588Z,0
2022-07-25T00:39:14.548Z,0
2022-07-25T00:39:37.248Z,0
2022-07-25T00:39:59.407Z,0
2022-07-25T00:40:34.667Z,0
2022-07-25T00:41:06.494Z,0
2022-07-25T00:41:38.778Z,0
2022-07-25T00:42:10.540Z,0
2022-07-25T00:42:43.003Z,0
2022-07-25T00:43:14.611Z,0
2022-07-25T00:43:37.429Z,0
2022-07-25T00:43:59.993Z,0
2022-07-25T00:44:34.883Z,0
2022-07-25T00:45:06.793Z,0
2022-07-25T00:45:38.731Z,0
2022-07-25T00:46:09.016Z,0
2022-07-25T00:46:42.990Z,0
2022-07-25T00:47:14.492Z,0
2022-07-25T00:47:37.207Z,0
2022-07-25T00:47:59.372Z,0
2022-07-25T00:48:34.707Z,0
2022-07-25T00:49:07.233Z,0
2022-07-25T00:49:38.593Z,0
2022-07-25T00:50:08.959Z,0
2022-07-25T00:50:42.621Z,0
2022-07-25T00:51:14.881Z,0
2022-07-25T00:51:38.288Z,0
2022-07-25T00:52:00.938Z,0
2022-07-25T00:52:34.554Z,0
2022-07-25T00:53:09.092Z,0
2022-07-25T00:53:42.117Z,0
2022-07-25T00:54:09.148Z,0
2022-07-25T00:54:42.474Z,0
2022-07-25T00:55:14.694Z,0
2022-07-25T00:55:37.836Z,0
2022-07-25T00:56:00.087Z,0
2022-07-25T00:56:34.491Z,0
2022-07-25T00:57:06.460Z,0
2022-07-25T00:57:38.797Z,0
2022-07-25T00:58:08.965Z,0
2022-07-25T00:58:42.708Z,0
2022-07-25T00:59:14.668Z,0
2022-07-25T00:59:37.600Z,0
2022-07-25T00:59:59.856Z,0
2022-07-25T01:00:34.638Z,0
2022-07-25T01:01:06.734Z,0
2022-07-25T01:01:44.197Z,0
2022-07-25T01:02:08.981Z,0
2022-07-25T01:02:42.703Z,0
2022-07-25T01:03:15.009Z,0
2022-07-25T01:03:37.684Z,0
2022-07-25T01:03:59.935Z,0
2022-07-25T01:04:38.066Z,0
2022-07-25T01:05:06.608Z,0
2022-07-25T01:05:38.519Z,0
2022-07-25T01:06:09.190Z,0
2022-07-25T01:06:42.609Z,0
2022-07-25T01:07:14.442Z,0
2022-07-25T01:07:37.332Z,0
2022-07-25T01:07:59.950Z,0
2022-07-25T01:08:34.752Z,0
2022-07-25T01:09:06.613Z,0
2022-07-25T01:09:44.069Z,0
2022-07-25T01:10:06.862Z,0
2022-07-25T01:10:42.696Z,0
2022-07-25T01:11:15.209Z,0
2022-07-25T01:11:37.811Z,0
2022-07-25T01:12:00.674Z,0
2022-07-25T01:12:35.336Z,0
2022-07-25T01:13:06.953Z,.32
2022-07-25T01:13:38.654Z,0
2022-07-25T01:14:09.416Z,0
2022-07-25T01:14:42.670Z,0
2022-07-25T01:15:14.882Z,0
2022-07-25T01:15:37.309Z,0
2022-07-25T01:16:02.104Z,0
2022-07-25T01:16:37.369Z,0
2022-07-25T01:17:08.569Z,0
2022-07-25T01:17:39.993Z,0
2022-07-25T01:18:10.748Z,0
2022-07-25T01:18:42.554Z,0
2022-07-25T01:19:15.580Z,0
2022-07-25T01:19:41.854Z,0
2022-07-25T01:20:01.497Z,0
2022-07-25T01:20:35.563Z,0
2022-07-25T01:21:07.205Z,0
2022-07-25T01:21:39.246Z,0
2022-07-25T01:22:09.171Z,0
2022-07-25T01:22:43.973Z,0
2022-07-25T01:23:15.052Z,0
2022-07-25T01:23:37.922Z,0
2022-07-25T01:24:01.189Z,0
2022-07-25T01:24:35.740Z,0
2022-07-25T01:25:06.814Z,0
2022-07-25T01:25:38.539Z,0
2022-07-25T01:26:09.902Z,0
2022-07-25T01:26:42.658Z,0
2022-07-25T01:27:17.250Z,0
2022-07-25T01:27:37.798Z,0
2022-07-25T01:28:00.116Z,0
2022-07-25T01:28:35.692Z,0
2022-07-25T01:29:09.020Z,0
2022-07-25T01:29:38.955Z,0
2022-07-25T01:30:09.734Z,0
2022-07-25T01:30:42.672Z,0
2022-07-25T01:31:14.710Z,0
2022-07-25T01:31:37.343Z,0
2022-07-25T01:32:00.335Z,0
2022-07-25T01:32:34.778Z,0
2022-07-25T01:33:07.395Z,0
2022-07-25T01:33:38.607Z,0
2022-07-25T01:34:09.830Z,0
2022-07-25T01:34:46.491Z,0
2022-07-25T01:35:14.901Z,0
2022-07-25T01:35:43.074Z,0
2022-07-25T01:36:00.008Z,0
2022-07-25T01:36:34.584Z,.64
2022-07-25T01:37:06.957Z,0
2022-07-25T01:37:45.395Z,0
2022-07-25T01:38:10.627Z,0
2022-07-25T01:38:42.979Z,0
2022-07-25T01:39:14.777Z,0
2022-07-25T01:39:37.344Z,0
2022-07-25T01:40:00.380Z,0
2022-07-25T01:40:34.493Z,0
2022-07-25T01:41:06.624Z,0
2022-07-25T01:41:38.670Z,0
2022-07-25T01:42:09.198Z,0
2022-07-25T01:42:44.340Z,0
2022-07-25T01:43:14.831Z,0
2022-07-25T01:43:37.575Z,0
2022-07-25T01:44:01.823Z,1.12
2022-07-25T01:44:34.889Z,0
2022-07-25T01:45:06.716Z,0
2022-07-25T01:45:39.486Z,0
2022-07-25T01:46:09.633Z,0
2022-07-25T01:46:43.193Z,0
2022-07-25T01:47:18.523Z,0
2022-07-25T01:47:37.724Z,0
2022-07-25T01:48:00.834Z,0
2022-07-25T01:48:38.207Z,0
2022-07-25T01:49:12.171Z,0
2022-07-25T01:49:38.662Z,0
2022-07-25T01:50:09.110Z,0
2022-07-25T01:50:43.137Z,0
2022-07-25T01:51:14.673Z,0
2022-07-25T01:51:37.438Z,0
2022-07-25T01:51:59.994Z,0
2022-07-25T01:52:35.733Z,0
2022-07-25T01:53:07.019Z,0
2022-07-25T01:53:40.629Z,2.89
2022-07-25T01:54:10.465Z,0
2022-07-25T01:54:43.461Z,0
2022-07-25T01:55:14.931Z,0
2022-07-25T01:55:37.636Z,0
2022-07-25T01:56:00.565Z,0
2022-07-25T01:56:34.585Z,0
2022-07-25T01:57:07.095Z,0
2022-07-25T01:57:38.421Z,0
2022-07-25T01:58:09.244Z,0
2022-07-25T01:58:42.862Z,0
2022-07-25T01:59:15.352Z,0
2022-07-25T01:59:37.875Z,0
2022-07-25T02:00:01.701Z,0
2022-07-25T02:00:34.575Z,0
2022-07-25T02:01:07.108Z,0
2022-07-25T02:01:42.971Z,0
2022-07-25T02:02:05.151Z,0
2022-07-25T02:02:42.733Z,0
2022-07-25T02:03:19.996Z,0
2022-07-25T02:03:37.287Z,0
2022-07-25T02:03:59.612Z,0
2022-07-25T02:04:35.090Z,0
2022-07-25T02:05:06.516Z,0
2022-07-25T02:05:38.532Z,0
2022-07-25T02:06:11.515Z,0
2022-07-25T02:06:42.535Z,0
2022-07-25T02:07:14.387Z,0
2022-07-25T02:07:37.652Z,0
2022-07-25T02:07:59.785Z,0
2022-07-25T02:08:35.426Z,0
2022-07-25T02:09:06.377Z,0
2022-07-25T02:09:38.509Z,0
2022-07-25T02:10:09.161Z,0
2022-07-25T02:10:42.625Z,0
2022-07-25T02:11:14.618Z,0
2022-07-25T02:11:48.488Z,0
2022-07-25T02:12:00.227Z,0
2022-07-25T02:12:35.453Z,0
2022-07-25T02:13:06.609Z,0
2022-07-25T02:13:38.500Z,0
2022-07-25T02:14:09.503Z,0
2022-07-25T02:14:42.624Z,0
2022-07-25T02:15:14.867Z,0
2022-07-25T02:15:37.654Z,0
2022-07-25T02:16:00.545Z,0
2022-07-25T02:16:35.709Z,0
2022-07-25T02:17:06.825Z,0
2022-07-25T02:17:38.965Z,0
2022-07-25T02:18:08.963Z,0
2022-07-25T02:18:42.494Z,0
2022-07-25T02:19:14.741Z,0
2022-07-25T02:19:37.579Z,0
2022-07-25T02:19:59.953Z,0
2022-07-25T02:20:35.917Z,0
2022-07-25T02:21:06.357Z,0
2022-07-25T02:21:38.712Z,0
2022-07-25T02:22:08.978Z,0
2022-07-25T02:22:42.497Z,0
2022-07-25T02:23:14.461Z,0
2022-07-25T02:23:40.765Z,0
2022-07-25T02:23:59.715Z,0
2022-07-25T02:24:36.245Z,0
2022-07-25T02:25:06.481Z,0
2022-07-25T02:25:38.420Z,0
2022-07-25T02:26:09.068Z,0
2022-07-25T02:26:42.377Z,0
2022-07-25T02:27:14.544Z,0
2022-07-25T02:27:37.533Z,0
2022-07-25T02:27:59.786Z,0
2022-07-25T02:28:34.497Z,0
2022-07-25T02:29:06.479Z,0
2022-07-25T02:29:38.412Z,0
2022-07-25T02:30:11.162Z,0
2022-07-25T02:30:42.424Z,0
2022-07-25T02:31:14.810Z,0
2022-07-25T02:31:37.313Z,0
2022-07-25T02:31:59.682Z,0
2022-07-25T02:32:34.355Z,0
2022-07-25T02:33:06.487Z,0
2022-07-25T02:33:38.630Z,0
2022-07-25T02:34:10.605Z,0
2022-07-25T02:34:42.386Z,0
2022-07-25T02:35:14.442Z,0
2022-07-25T02:35:37.621Z,0
2022-07-25T02:35:59.693Z,0
2022-07-25T02:36:39.966Z,0
2022-07-25T02:37:06.331Z,0
2022-07-25T02:37:38.509Z,0
2022-07-25T02:38:09.104Z,0
2022-07-25T02:38:42.615Z,0
2022-07-25T02:39:14.331Z,0
2022-07-25T02:39:42.363Z,0
2022-07-25T02:40:01.662Z,0
2022-07-25T02:40:34.455Z,0
2022-07-25T02:41:09.873Z,0
2022-07-25T02:41:38.615Z,0
2022-07-25T02:42:09.103Z,0
2022-07-25T02:42:42.461Z,0
2022-07-25T02:43:08.592Z,0
2022-07-25T02:43:40.807Z,0
2022-07-25T02:44:34.679Z,0
2022-07-25T02:45:06.572Z,0
2022-07-25T02:45:38.989Z,0
2022-07-25T02:46:09.106Z,0
2022-07-25T02:46:42.684Z,0
2022-07-25T02:47:14.455Z,0
2022-07-25T02:47:38.874Z,0
2022-07-25T02:48:00.344Z,0
2022-07-25T02:48:34.474Z,.32
2022-07-25T02:49:06.949Z,.64
2022-07-25T02:49:39.220Z,.32
2022-07-25T02:50:04.639Z,1.12
2022-07-25T02:50:43.328Z,1.44
2022-07-25T02:51:15.955Z,.32
2022-07-25T02:51:40.924Z,.32
2022-07-25T02:52:04.379Z,.64
2022-07-25T02:52:34.432Z,.32
2022-07-25T02:53:06.368Z,.64
2022-07-25T02:53:57.215Z,.64
2022-07-25T02:54:04.555Z,.32
2022-07-25T02:54:43.011Z,0
2022-07-25T02:55:15.805Z,0
2022-07-25T02:55:37.228Z,0
2022-07-25T02:55:59.605Z,0
2022-07-25T02:56:34.569Z,0
2022-07-25T02:57:06.457Z,0
2022-07-25T02:57:40.192Z,0
2022-07-25T02:58:09.096Z,0
2022-07-25T02:58:42.362Z,0
2022-07-25T02:59:14.603Z,0
2022-07-25T02:59:37.281Z,0
2022-07-25T02:59:59.520Z,0
2022-07-25T03:00:34.515Z,0
2022-07-25T03:01:06.516Z,0
2022-07-25T03:01:38.499Z,0
2022-07-25T03:02:09.061Z,0
2022-07-25T03:02:42.460Z,0
2022-07-25T03:03:18.004Z,0
2022-07-25T03:03:37.429Z,0
2022-07-25T03:03:59.698Z,0
2022-07-25T03:04:44.907Z,0
2022-07-25T03:05:07.025Z,0
2022-07-25T03:05:38.452Z,0
2022-07-25T03:06:09.125Z,0
2022-07-25T03:06:42.421Z,0
2022-07-25T03:07:14.432Z,0
2022-07-25T03:07:37.266Z,0
2022-07-25T03:07:59.509Z,0
2022-07-25T03:08:34.717Z,0
2022-07-25T03:09:06.888Z,0
2022-07-25T03:09:43.055Z,0
2022-07-25T03:10:11.239Z,0
2022-07-25T03:10:42.408Z,0
2022-07-25T03:11:14.564Z,0
2022-07-25T03:11:37.923Z,0
2022-07-25T03:11:59.972Z,0
2022-07-25T03:12:34.573Z,0
2022-07-25T03:13:26.722Z,0
2022-07-25T03:13:46.044Z,0
2022-07-25T03:14:09.856Z,0
2022-07-25T03:14:44.829Z,0
2022-07-25T03:15:15.916Z,0
2022-07-25T03:15:40.640Z,0
2022-07-25T03:16:07.006Z,0
2022-07-25T03:16:38.056Z,0
2022-07-25T03:17:06.605Z,0
2022-07-25T03:17:40.974Z,0
2022-07-25T03:18:09.501Z,0
2022-07-25T03:18:49.240Z,0
2022-07-25T03:19:19.328Z,0
2022-07-25T03:19:38.556Z,0
2022-07-25T03:20:02.342Z,0
2022-07-25T03:20:35.145Z,0
2022-07-25T03:21:06.744Z,0
2022-07-25T03:21:38.642Z,0
2022-07-25T03:22:09.215Z,0
2022-07-25T03:22:44.308Z,0
2022-07-25T03:23:14.536Z,0
2022-07-25T03:23:37.587Z,0
2022-07-25T03:24:00.611Z,0
2022-07-25T03:24:34.444Z,0
2022-07-25T03:25:16.013Z,0
2022-07-25T03:25:38.482Z,0
2022-07-25T03:26:09.410Z,0
2022-07-25T03:26:44.450Z,0
2022-07-25T03:27:14.300Z,0
2022-07-25T03:27:37.036Z,0
2022-07-25T03:27:59.749Z,0
2022-07-25T03:28:35.942Z,0
2022-07-25T03:29:07.256Z,0
2022-07-25T03:29:38.577Z,0
2022-07-25T03:30:10.164Z,0
2022-07-25T03:30:45.707Z,0
2022-07-25T03:31:15.122Z,0
2022-07-25T03:31:38.162Z,0
2022-07-25T03:32:01.253Z,0
2022-07-25T03:32:37.189Z,0
2022-07-25T03:33:07.142Z,0
2022-07-25T03:33:38.835Z,0
2022-07-25T03:34:09.591Z,0
2022-07-25T03:34:42.391Z,0
2022-07-25T03:35:15.164Z,0
2022-07-25T03:35:37.870Z,0
2022-07-25T03:36:00.440Z,0
2022-07-25T03:36:34.442Z,0
2022-07-25T03:37:06.422Z,.32
2022-07-25T03:37:38.563Z,0
2022-07-25T03:38:09.410Z,0
2022-07-25T03:38:43.300Z,0
2022-07-25T03:39:14.688Z,0
2022-07-25T03:39:37.607Z,0
2022-07-25T03:40:00.951Z,0
2022-07-25T03:40:34.641Z,0
2022-07-25T03:41:06.702Z,0
2022-07-25T03:41:38.693Z,0
2022-07-25T03:42:11.868Z,0
2022-07-25T03:42:42.523Z,0
2022-07-25T03:43:15.208Z,0
2022-07-25T03:43:37.927Z,0
2022-07-25T03:44:00.505Z,0
2022-07-25T03:44:35.591Z,0
2022-07-25T03:45:06.538Z,0
2022-07-25T03:45:38.537Z,0
2022-07-25T03:46:09.411Z,0
2022-07-25T03:46:43.295Z,0
2022-07-25T03:47:20.690Z,0
2022-07-25T03:47:37.021Z,0
2022-07-25T03:47:59.622Z,0
2022-07-25T03:48:38.664Z,0
2022-07-25T03:49:11.023Z,0
2022-07-25T03:49:38.447Z,0
2022-07-25T03:50:11.175Z,0
2022-07-25T03:50:42.517Z,0
2022-07-25T03:51:15.244Z,0
2022-07-25T03:51:37.922Z,0
2022-07-25T03:52:01.478Z,0
2022-07-25T03:52:34.725Z,0
2022-07-25T03:53:06.559Z,0
2022-07-25T03:53:40.259Z,0
2022-07-25T03:54:11.212Z,0
2022-07-25T03:54:42.812Z,0
2022-07-25T03:55:14.463Z,0
2022-07-25T03:55:37.022Z,0
2022-07-25T03:56:00.195Z,0
2022-07-25T03:56:34.743Z,0
2022-07-25T03:57:06.700Z,0
2022-07-25T03:57:38.465Z,0
2022-07-25T03:58:09.163Z,0
2022-07-25T03:58:42.464Z,0
2022-07-25T03:59:14.758Z,0
2022-07-25T03:59:37.226Z,0
2022-07-25T04:00:00.254Z,0
2022-07-25T04:00:34.951Z,0
2022-07-25T04:01:06.529Z,0
2022-07-25T04:01:46.732Z,0
2022-07-25T04:02:09.876Z,0
2022-07-25T04:02:43.325Z,0
2022-07-25T04:03:15.271Z,0
2022-07-25T04:03:38.270Z,0
2022-07-25T04:04:01.521Z,0
2022-07-25T04:04:36.703Z,0
2022-07-25T04:05:07.311Z,0
2022-07-25T04:05:38.377Z,0
2022-07-25T04:06:09.679Z,0
2022-07-25T04:06:42.516Z,0
2022-07-25T04:07:15.506Z,0
2022-07-25T04:07:38.387Z,0
2022-07-25T04:08:01.965Z,0
2022-07-25T04:08:35.199Z,0
2022-07-25T04:09:13.591Z,0
2022-07-25T04:09:35.901Z,0
2022-07-25T04:10:09.091Z,0
2022-07-25T04:10:42.425Z,0
2022-07-25T04:11:14.655Z,0
2022-07-25T04:11:38.383Z,0
2022-07-25T04:12:00.717Z,0
2022-07-25T04:12:34.412Z,0
2022-07-25T04:13:06.298Z,0
2022-07-25T04:13:43.036Z,0
2022-07-25T04:14:09.798Z,0
2022-07-25T04:14:42.398Z,0
2022-07-25T04:15:14.636Z,0
2022-07-25T04:15:39.050Z,0
2022-07-25T04:16:04.883Z,0
2022-07-25T04:16:34.574Z,0
2022-07-25T04:17:00.671Z,0
2022-07-25T04:17:39.633Z,0
2022-07-25T04:18:12.223Z,0
2022-07-25T04:18:44.176Z,0
2022-07-25T04:19:15.637Z,0
2022-07-25T04:19:37.908Z,0
2022-07-25T04:20:00.261Z,0
2022-07-25T04:20:37.797Z,0
2022-07-25T04:21:06.998Z,0
2022-07-25T04:21:39.475Z,0
2022-07-25T04:22:09.250Z,0
2022-07-25T04:22:46.903Z,0
2022-07-25T04:23:14.434Z,0
2022-07-25T04:23:39.578Z,0
2022-07-25T04:23:59.501Z,0
2022-07-25T04:24:34.526Z,0
2022-07-25T04:25:07.667Z,0
2022-07-25T04:25:39.610Z,0
2022-07-25T04:26:09.303Z,0
2022-07-25T04:26:42.610Z,0
2022-07-25T04:27:14.589Z,0
2022-07-25T04:27:37.509Z,0
2022-07-25T04:28:00.549Z,0
2022-07-25T04:28:44.009Z,0
2022-07-25T04:29:04.913Z,0
2022-07-25T04:29:39.454Z,0
2022-07-25T04:30:09.745Z,0
2022-07-25T04:30:42.897Z,0
2022-07-25T04:31:14.781Z,0
2022-07-25T04:31:37.595Z,0
2022-07-25T04:32:02.030Z,0
2022-07-25T04:32:35.664Z,0
2022-07-25T04:33:07.218Z,0
2022-07-25T04:33:40.500Z,0
2022-07-25T04:34:12.693Z,0
2022-07-25T04:34:42.446Z,0
2022-07-25T04:35:14.408Z,0
2022-07-25T04:35:38.635Z,0
2022-07-25T04:35:59.411Z,0
2022-07-25T04:36:34.769Z,0
2022-07-25T04:37:07.682Z,0
2022-07-25T04:37:38.343Z,0
2022-07-25T04:38:13.157Z,0
2022-07-25T04:38:43.753Z,0
2022-07-25T04:39:14.662Z,0
2022-07-25T04:39:37.308Z,0
2022-07-25T04:40:04.097Z,0
2022-07-25T04:40:35.047Z,.32
2022-07-25T04:41:07.664Z,0
2022-07-25T04:41:39.341Z,0
2022-07-25T04:42:09.312Z,0
2022-07-25T04:42:47.781Z,0
2022-07-25T04:43:14.371Z,0
2022-07-25T04:43:46.351Z,0
2022-07-25T04:43:59.461Z,0
2022-07-25T04:44:35.656Z,0
2022-07-25T04:45:09.382Z,0
2022-07-25T04:45:46.697Z,0
2022-07-25T04:46:09.304Z,0
2022-07-25T04:46:42.585Z,0
2022-07-25T04:47:14.274Z,0
2022-07-25T04:47:36.760Z,0
2022-07-25T04:48:00.169Z,0
2022-07-25T04:48:40.314Z,0
2022-07-25T04:49:09.414Z,0
2022-07-25T04:49:38.597Z,0
2022-07-25T04:50:09.862Z,0
2022-07-25T04:50:42.480Z,0
2022-07-25T04:51:14.799Z,0
2022-07-25T04:51:37.931Z,0
2022-07-25T04:52:00.289Z,0
2022-07-25T04:52:34.873Z,.32
2022-07-25T04:53:06.501Z,0
2022-07-25T04:53:47.223Z,0
2022-07-25T04:54:10.587Z,0
2022-07-25T04:54:43.576Z,.32
2022-07-25T04:55:15.172Z,0
2022-07-25T04:55:37.394Z,0
2022-07-25T04:56:02.152Z,0
2022-07-25T04:56:34.277Z,.32
2022-07-25T04:57:06.559Z,.32
2022-07-25T04:57:38.245Z,0
2022-07-25T04:58:09.184Z,0
2022-07-25T04:58:42.470Z,0
2022-07-25T04:59:15.422Z,0
2022-07-25T04:59:37.560Z,0
2022-07-25T05:00:00.797Z,0
2022-07-25T05:00:35.160Z,0
2022-07-25T05:01:06.430Z,0
2022-07-25T05:01:40.527Z,0
2022-07-25T05:02:11.258Z,0
2022-07-25T05:02:42.833Z,.32
2022-07-25T05:03:14.839Z,0
2022-07-25T05:03:37.411Z,0
2022-07-25T05:04:00.064Z,0
2022-07-25T05:04:35.042Z,0
2022-07-25T05:05:07.804Z,0
2022-07-25T05:05:38.332Z,0
2022-07-25T05:06:12.842Z,0
2022-07-25T05:06:42.954Z,0
2022-07-25T05:07:14.985Z,0
2022-07-25T05:07:37.665Z,0
2022-07-25T05:08:00.071Z,0
2022-07-25T05:08:37.608Z,0
2022-07-25T05:09:06.388Z,0
2022-07-25T05:09:38.942Z,0
2022-07-25T05:10:09.845Z,0
2022-07-25T05:10:42.306Z,0
2022-07-25T05:11:14.673Z,0
2022-07-25T05:11:37.971Z,0
2022-07-25T05:12:05.064Z,0
2022-07-25T05:12:35.048Z,0
2022-07-25T05:13:06.326Z,.32
2022-07-25T05:13:39.177Z,1.12
2022-07-25T05:14:09.730Z,.32
2022-07-25T05:14:47.826Z,1.12
2022-07-25T05:15:14.736Z,1.12
2022-07-25T05:15:38.918Z,.32
2022-07-25T05:16:04.714Z,1.12
2022-07-25T05:16:35.000Z,.32
2022-07-25T05:17:06.338Z,0
2022-07-25T05:17:40.277Z,0
2022-07-25T05:18:10.590Z,0
2022-07-25T05:18:43.872Z,0
2022-07-25T05:19:18.111Z,0
2022-07-25T05:19:37.390Z,0
2022-07-25T05:20:00.923Z,0
2022-07-25T05:20:35.931Z,0
2022-07-25T05:21:07.195Z,0
2022-07-25T05:21:47.553Z,0
2022-07-25T05:22:06.597Z,0
2022-07-25T05:22:42.537Z,0
2022-07-25T05:23:14.369Z,0
2022-07-25T05:23:37.919Z,0
2022-07-25T05:24:00.250Z,0
2022-07-25T05:24:36.054Z,0
2022-07-25T05:25:06.625Z,0
2022-07-25T05:25:41.728Z,0
2022-07-25T05:26:09.203Z,0
2022-07-25T05:26:42.217Z,0
2022-07-25T05:27:14.259Z,0
2022-07-25T05:27:37.083Z,0
2022-07-25T05:27:59.884Z,0
2022-07-25T05:28:35.944Z,0
2022-07-25T05:29:07.839Z,0
2022-07-25T05:29:41.732Z,0
2022-07-25T05:30:10.426Z,0
2022-07-25T05:30:42.471Z,0
2022-07-25T05:31:17.895Z,0
2022-07-25T05:31:38.323Z,0
2022-07-25T05:32:00.567Z,0
2022-07-25T05:32:34.845Z,0
2022-07-25T05:33:06.306Z,0
2022-07-25T05:33:38.834Z,0
2022-07-25T05:34:09.692Z,0
2022-07-25T05:34:42.237Z,0
2022-07-25T05:35:14.193Z,0
2022-07-25T05:35:36.913Z,0
2022-07-25T05:36:04.759Z,0
2022-07-25T05:36:34.527Z,0
2022-07-25T05:37:06.307Z,0
2022-07-25T05:37:38.413Z,0
2022-07-25T05:38:09.508Z,0
2022-07-25T05:38:42.292Z,0
2022-07-25T05:39:14.318Z,0
2022-07-25T05:39:41.616Z,0
2022-07-25T05:40:02.100Z,0
2022-07-25T05:40:34.177Z,0
2022-07-25T05:41:06.237Z,0
2022-07-25T05:41:38.309Z,0
2022-07-25T05:42:09.209Z,0
2022-07-25T05:42:42.328Z,0
2022-07-25T05:43:14.649Z,0
2022-07-25T05:43:37.023Z,0
2022-07-25T05:43:59.519Z,0
2022-07-25T05:44:35.849Z,0
2022-07-25T05:45:06.382Z,0
2022-07-25T05:45:38.309Z,0
2022-07-25T05:46:09.108Z,0
2022-07-25T05:46:45.862Z,0
2022-07-25T05:47:14.152Z,0
2022-07-25T05:47:37.373Z,0
2022-07-25T05:48:03.094Z,0
2022-07-25T05:48:34.405Z,0
2022-07-25T05:49:08.904Z,0
2022-07-25T05:49:38.338Z,0
2022-07-25T05:50:09.080Z,0
2022-07-25T05:50:42.383Z,0
2022-07-25T05:51:14.690Z,0
2022-07-25T05:51:37.908Z,0
2022-07-25T05:52:00.451Z,0
2022-07-25T05:52:34.575Z,0
2022-07-25T05:53:06.789Z,0
2022-07-25T05:53:40.885Z,0
2022-07-25T05:54:09.657Z,0
2022-07-25T05:54:45.816Z,0
2022-07-25T05:55:17.832Z,0
2022-07-25T05:55:40.089Z,0
2022-07-25T05:55:59.697Z,0
2022-07-25T05:56:34.346Z,0
2022-07-25T05:57:06.236Z,0
2022-07-25T05:57:38.362Z,0
2022-07-25T05:58:09.186Z,0
2022-07-25T05:58:42.253Z,0
2022-07-25T05:59:15.839Z,.64
2022-07-25T05:59:37.119Z,.32
2022-07-25T05:59:59.462Z,1.44
2022-07-25T06:00:34.594Z,2.89
2022-07-25T06:01:06.531Z,1.12
2022-07-25T06:01:39.015Z,1.12
2022-07-25T06:02:09.276Z,2.09
2022-07-25T06:02:46.019Z,2.89
2022-07-25T06:03:15.863Z,2.57
2022-07-25T06:03:37.493Z,1.77
2022-07-25T06:03:59.588Z,1.77
2022-07-25T06:04:34.870Z,1.77
2022-07-25T06:05:06.259Z,2.89
2022-07-25T06:05:37.708Z,2.89
2022-07-25T06:06:11.202Z,2.89
2022-07-25T06:06:43.143Z,1.77
2022-07-25T06:07:16.849Z,2.89
2022-07-25T06:07:37.839Z,2.09
2022-07-25T06:08:00.402Z,2.89
2022-07-25T06:08:35.192Z,2.57
2022-07-25T06:09:08.038Z,2.09
2022-07-25T06:09:38.660Z,1.77
2022-07-25T06:10:09.477Z,2.89
2022-07-25T06:10:45.838Z,3.21
2022-07-25T06:11:14.242Z,3.21
2022-07-25T06:11:54.654Z,2.89
2022-07-25T06:12:19.171Z,2.09
2022-07-25T06:12:41.298Z,1.77
2022-07-25T06:13:07.049Z,3.21
2022-07-25T06:13:38.382Z,2.57
2022-07-25T06:14:11.215Z,2.89
2022-07-25T06:14:42.598Z,2.09
2022-07-25T06:15:22.073Z,1.77
2022-07-25T06:15:37.681Z,1.12
2022-07-25T06:16:02.298Z,.64
2022-07-25T06:16:35.445Z,2.57
2022-07-25T06:17:07.962Z,2.89
2022-07-25T06:17:45.579Z,0
2022-07-25T06:18:07.765Z,2.09
2022-07-25T06:18:42.194Z,2.09
2022-07-25T06:19:14.840Z,3.21
2022-07-25T06:19:38.051Z,2.57
2022-07-25T06:20:00.431Z,2.57
2022-07-25T06:20:34.416Z,1.44
2022-07-25T06:21:08.227Z,1.44
2022-07-25T06:21:38.727Z,.64
2022-07-25T06:22:09.366Z,0
2022-07-25T06:22:44.741Z,2.89
2022-07-25T06:23:14.847Z,1.77
2022-07-25T06:23:37.895Z,1.77
2022-07-25T06:23:59.690Z,1.44
2022-07-25T06:24:34.410Z,0
2022-07-25T06:25:08.309Z,0
2022-07-25T06:25:38.126Z,1.44
2022-07-25T06:26:07.993Z,1.12
2022-07-25T06:26:46.392Z,.32
2022-07-25T06:27:20.513Z,0
2022-07-25T06:27:39.325Z,0
2022-07-25T06:28:03.084Z,1.44
2022-07-25T06:28:34.319Z,1.12
2022-07-25T06:29:06.352Z,.32
2022-07-25T06:29:39.534Z,.32
2022-07-25T06:30:19.152Z,.32
2022-07-25T06:30:43.406Z,.64
2022-07-25T06:31:19.023Z,0
2022-07-25T06:31:37.286Z,0
2022-07-25T06:31:59.728Z,0
2022-07-25T06:32:34.655Z,0
2022-07-25T06:33:09.863Z,0
2022-07-25T06:33:38.231Z,.32
2022-07-25T06:34:10.067Z,.64
2022-07-25T06:34:42.901Z,0
2022-07-25T06:35:14.987Z,0
2022-07-25T06:35:37.684Z,0
2022-07-25T06:36:00.086Z,0
2022-07-25T06:36:34.321Z,0
2022-07-25T06:37:06.287Z,0
2022-07-25T06:37:38.574Z,0
2022-07-25T06:38:12.371Z,.32
2022-07-25T06:38:42.434Z,0
2022-07-25T06:39:14.693Z,.32
2022-07-25T06:39:41.386Z,0
2022-07-25T06:40:00.322Z,.32
2022-07-25T06:40:39.957Z,.32
2022-07-25T06:41:06.832Z,0
2022-07-25T06:41:39.508Z,1.12
2022-07-25T06:42:10.229Z,0
2022-07-25T06:42:42.408Z,1.12
2022-07-25T06:43:14.318Z,0
2022-07-25T06:43:36.988Z,0
2022-07-25T06:43:59.640Z,0
2022-07-25T06:44:35.329Z,1.77
2022-07-25T06:45:06.596Z,1.44
2022-07-25T06:45:38.267Z,.32
2022-07-25T06:46:10.900Z,1.77
2022-07-25T06:46:42.461Z,1.44
2022-07-25T06:47:14.306Z,0
2022-07-25T06:47:36.978Z,.32
2022-07-25T06:48:05.717Z,.32
2022-07-25T06:48:34.603Z,0
2022-07-25T06:49:08.062Z,0
2022-07-25T06:49:41.885Z,0
2022-07-25T06:50:11.451Z,.32
2022-07-25T06:50:43.346Z,.32
2022-07-25T06:51:14.411Z,.32
2022-07-25T06:51:37.032Z,0
2022-07-25T06:51:59.639Z,.32
2022-07-25T06:52:34.916Z,1.44
2022-07-25T06:53:06.477Z,.32
2022-07-25T06:53:42.042Z,2.89
2022-07-25T06:54:04.857Z,2.09
2022-07-25T06:54:42.759Z,1.44
2022-07-25T06:55:14.259Z,2.09
2022-07-25T06:55:38.268Z,1.77
2022-07-25T06:56:00.723Z,.64
2022-07-25T06:56:34.377Z,0
2022-07-25T06:57:06.275Z,.32
2022-07-25T06:57:38.209Z,0
2022-07-25T06:58:09.217Z,.32
2022-07-25T06:58:45.817Z,1.12
2022-07-25T06:59:16.652Z,0
2022-07-25T06:59:36.954Z,1.12
2022-07-25T06:59:59.255Z,0
2022-07-25T07:00:34.496Z,0
2022-07-25T07:01:06.367Z,.32
2022-07-25T07:01:40.740Z,0
2022-07-25T07:02:09.335Z,0
2022-07-25T07:02:42.280Z,0
2022-07-25T07:03:14.900Z,2.09
2022-07-25T07:03:36.986Z,.32
2022-07-25T07:03:59.506Z,1.77
2022-07-25T07:04:34.368Z,0
2022-07-25T07:05:06.321Z,1.77
2022-07-25T07:05:38.211Z,2.09
2022-07-25T07:06:09.735Z,.32
2022-07-25T07:06:42.349Z,0
2022-07-25T07:07:14.256Z,4.66
2022-07-25T07:07:47.405Z,2.09
2022-07-25T07:08:01.232Z,1.12
2022-07-25T07:08:34.250Z,2.57
2022-07-25T07:09:06.166Z,1.44
2022-07-25T07:09:38.293Z,0
2022-07-25T07:10:04.941Z,1.12
2022-07-25T07:10:42.546Z,1.44
2022-07-25T07:11:14.424Z,1.77
2022-07-25T07:11:37.338Z,.32
2022-07-25T07:12:03.238Z,.32
2022-07-25T07:12:34.711Z,.64
2022-07-25T07:13:07.742Z,0
2022-07-25T07:13:38.439Z,.32
2022-07-25T07:14:09.789Z,.64
2022-07-25T07:14:42.250Z,1.44
2022-07-25T07:15:14.835Z,2.09
2022-07-25T07:15:38.061Z,1.12
2022-07-25T07:16:05.278Z,1.77
2022-07-25T07:16:35.542Z,1.12
2022-07-25T07:17:06.797Z,0